Impacts TAF Board INFO
FOR SITUATIONAL AWARENESS. NOT TO BE USED FOR FLIGHT PLANNING PURPOSES.
IDs:

KIAH - Houston/Bush Intl, TX, US

Issued at 2340 UTC 17 Oct 2017
Updated at 0156 UTC 18 Oct 2017
Potential Impact None Slight Moderate High
Time0153Z 18/02Z 18/03Z 18/04Z 18/05Z 18/06Z 18/07Z 18/08Z 18/09Z 18/10Z 18/11Z 18/12Z 18/13Z 18/14Z>>
Type OBS PRVL PRVL PRVL PRVL PRVL PRVL PRVL PRVL PRVL PRVL PRVL PRVL PRVL
VIS 10 >6 >6 >6 >6 >6 >6 >6 >6 >6 >6 >6 >6 >6
CIG -- -- -- -- -- -- -- -- -- -- -- -- -- --
Cover CLR SKC SKC SKC SKC SKC SKC SKC SKC SKC SKC SKC SKC SKC
FltCat VFR VFR VFR VFR VFR VFR VFR VFR VFR VFR VFR VFR VFR VFR
WX -- -- -- -- -- -- -- -- -- -- -- -- -- --
WDir VRB 360 60 60 60 60 60 60 60 60 60 60 60 60
WSpd 0 8 3 3 3 3 3 3 3 3 3 3 3 3
WGst -- -- -- -- -- -- -- -- -- -- -- -- -- --

Raw TAF
KIAH 172340Z 1800/1906 36008KT P6SM SKC
  FM180300 06003KT P6SM SKC
  FM181700 14005KT P6SM SCT250


Raw METAR
KIAH 180153Z 00000KT 10SM CLR 16/10 A3017 RMK AO2 SLP217 T01610100
KIAH 180053Z 01004KT 10SM CLR 18/09 A3016 RMK AO2 SLP211 T01830094
KIAH 172353Z 36004KT 10SM CLR 21/08 A3014 RMK AO2 SLP205 T02060083 10261 20206 55004
KIAH 172253Z 36008KT 10SM CLR 24/08 A3014 RMK AO2 SLP204 T02390083

METAR Board
Radar Display
Forecast Discussion

FOR SITUATIONAL AWARENESS. NOT TO BE USED FOR FLIGHT PLANNING PURPOSES.